KMLS/MLS METAR and TAF weather

Enter ICAO airport designator
Station Type Date Time Source
KMLS METAR 2019/06/26 17:53 UTC NOAA

KMLS 261753Z AUTO 00000KT 10SM CLR 24/10 A2995 RMK AO2 SLP126 T02440100 10244 20122 51002


Station Type Date Time Source
KMLS Decoded METAR 2019/06/26 17:53 UTC NOAA

MILES CITY WILEY FIELD, MT, United States (KMLS) 46-26N 105-53W 801M
Jun 26, 2019 - 01:53 PM EDT / 2019.06.26 1753 UTC
Wind: Calm:0
Visibility: 10 mile(s):0
Sky conditions: clear
Temperature: 75.9 F (24.4 C)
Dew Point: 50.0 F (10.0 C)
Relative Humidity: 40%
Pressure (altimeter): 29.95 in. Hg (1014 hPa)
Pressure tendency: 0.01 inches (0.2 hPa) higher than three hours ago
ob: KMLS 261753Z AUTO 00000KT 10SM CLR 24/10 A2995 RMK AO2 SLP126 T02440100 10244 20122 51002
cycle: 18

Station Type Date Time Source
KMLS TAF 2019/06/26 18:24 UTC NOAA

TAF KMLS 261723Z 2618/2718 10009KT P6SM FEW100
FM262200 08009KT P6SM VCTS BKN080CB
FM270200 09010KT P6SM VCTS SCT050 SCT080CB
FM271200 VRB06KT P6SM BKN250

Example: see airport list